Time;durP1;ratioP1;P1;durP2;ratioP2;P2;SDS_P1;SDS_P2;PMS_P1;PMS_P2;Temp;Humidity;BMP_temperature;BMP_pressure;BME280_temperature;BME280_humidity;BME280_pressure;Samples;Min_cycle;Max_cycle;Signal;HPM_P1;HPM_P2
2021/09/23 00:00:24;;;;;;;0.70;0.70;;;;;;;9.17;100.00;101094.84;4961266;28;20990;-52
2021/09/23 00:05:28;;;;;;;0.40;0.40;;;;;;;9.05;100.00;101100.28;4961575;28;20960;-52
2021/09/23 00:07:57;;;;;;;0.40;0.20;;;;;;;9.11;100.00;101097.56;4962326;28;20458;-52
2021/09/23 00:10:27;;;;;;;0.30;0.20;;;;;;;9.17;100.00;101109.88;4967696;28;20451;-52
2021/09/23 00:12:55;;;;;;;0.30;0.20;;;;;;;8.96;100.00;101099.50;4967341;28;20525;-52
2021/09/23 00:15:22;;;;;;;0.30;0.20;;;;;;;8.88;100.00;101099.53;4968055;28;20455;-52
2021/09/23 00:17:52;;;;;;;0.30;0.20;;;;;;;8.56;100.00;101098.03;4967943;28;20485;-53
2021/09/23 00:20:24;;;;;;;0.30;0.20;;;;;;;8.71;100.00;101101.47;4955315;28;20459;-51
2021/09/23 00:22:52;;;;;;;0.30;0.20;;;;;;;8.70;100.00;101110.31;4967850;28;20494;-53
2021/09/23 00:25:20;;;;;;;0.30;0.20;;;;;;;8.82;100.00;101097.84;4963019;28;20853;-52
2021/09/23 00:27:47;;;;;;;0.30;0.20;;;;;;;8.68;100.00;101094.41;4960884;28;20514;-52
2021/09/23 00:30:14;;;;;;;0.30;0.20;;;;;;;8.79;100.00;101087.25;4967225;28;20459;-53
2021/09/23 00:32:41;;;;;;;0.50;0.50;;;;;;;8.58;100.00;101075.06;4961155;28;20494;-52
2021/09/23 00:35:08;;;;;;;0.30;0.20;;;;;;;8.48;100.00;101081.31;4965661;28;20459;-52
2021/09/23 00:37:35;;;;;;;0.30;0.20;;;;;;;8.60;100.00;101077.69;4968113;28;20825;-51
2021/09/23 00:40:07;;;;;;;0.30;0.20;;;;;;;8.69;100.00;101079.41;4962969;28;20450;-52
2021/09/23 00:42:39;;;;;;;0.30;0.20;;;;;;;8.53;100.00;101078.63;4960886;28;20896;-51
2021/09/23 00:45:08;;;;;;;0.30;0.20;;;;;;;8.42;100.00;101070.75;4964857;28;20455;-52
2021/09/23 00:47:35;;;;;;;0.77;0.53;;;;;;;8.45;100.00;101069.84;4968361;28;20483;-52
2021/09/23 00:50:03;;;;;;;1.23;1.13;;;;;;;8.49;100.00;101066.28;4966392;28;20454;-51
2021/09/23 00:52:31;;;;;;;0.30;0.20;;;;;;;8.43;100.00;101061.91;4961832;28;20466;-51
2021/09/23 00:54:58;;;;;;;0.30;0.20;;;;;;;8.50;100.00;101066.31;4963776;28;20455;-53
2021/09/23 00:57:25;;;;;;;0.30;0.20;;;;;;;8.45;100.00;101059.25;4987023;28;20971;-52
2021/09/23 00:59:53;;;;;;;0.30;0.20;;;;;;;8.58;100.00;101063.56;4962621;28;20514;-52
2021/09/23 01:02:21;;;;;;;0.40;0.40;;;;;;;8.51;100.00;101059.22;4973754;28;20505;-53
2021/09/23 01:04:50;;;;;;;0.30;0.20;;;;;;;8.43;100.00;101067.22;4961539;28;20466;-53
2021/09/23 01:07:19;;;;;;;0.30;0.20;;;;;;;8.51;100.00;101054.81;4968049;28;20955;-51
2021/09/23 01:09:51;;;;;;;0.30;0.20;;;;;;;8.49;100.00;101050.38;4967980;28;20492;-53
2021/09/23 01:12:20;;;;;;;0.37;0.27;;;;;;;8.43;100.00;101046.03;4962263;28;20968;-52
2021/09/23 01:14:49;;;;;;;0.30;0.20;;;;;;;8.43;100.00;101045.16;4961480;28;20456;-52
2021/09/23 01:17:16;;;;;;;0.30;0.20;;;;;;;8.64;100.00;101041.47;4966180;28;20482;-52
2021/09/23 01:19:45;;;;;;;0.73;0.73;;;;;;;8.46;100.00;101039.81;4967866;28;20509;-52
2021/09/23 01:22:13;;;;;;;0.30;0.20;;;;;;;8.41;100.00;101036.34;4963095;28;20530;-52
2021/09/23 01:24:40;;;;;;;0.30;0.20;;;;;;;8.51;100.00;101024.78;4960632;28;20458;-51
2021/09/23 01:27:11;;;;;;;0.30;0.20;;;;;;;8.29;100.00;101018.72;4965410;28;20474;-51
2021/09/23 01:29:40;;;;;;;0.30;0.20;;;;;;;8.47;100.00;101023.03;4967893;28;20942;-57
2021/09/23 01:32:08;;;;;;;0.30;0.20;;;;;;;8.32;100.00;101024.88;4961213;28;20475;-52
2021/09/23 01:34:36;;;;;;;0.30;0.20;;;;;;;8.17;100.00;101026.75;4968011;28;20490;-53
2021/09/23 01:37:08;;;;;;;0.30;0.20;;;;;;;8.27;100.00;101029.34;4966476;28;20951;-52
2021/09/23 01:39:36;;;;;;;0.30;0.20;;;;;;;8.39;100.00;101028.41;4961736;28;20454;-52
2021/09/23 01:42:04;;;;;;;10.10;2.03;;;;;;;8.35;100.00;101031.94;4961028;28;20523;-53
2021/09/23 01:44:31;;;;;;;0.30;0.20;;;;;;;8.20;100.00;101011.72;4967614;28;20455;-51
2021/09/23 01:46:59;;;;;;;0.30;0.20;;;;;;;8.28;100.00;101015.19;4969943;28;20493;-52
2021/09/23 01:49:26;;;;;;;0.30;0.20;;;;;;;8.45;100.00;101012.44;4965227;28;20462;-52
2021/09/23 01:51:53;;;;;;;0.30;0.20;;;;;;;8.24;100.00;101004.66;4965273;28;20489;-52
2021/09/23 01:54:20;;;;;;;0.30;0.20;;;;;;;8.08;100.00;101006.50;4964908;28;20947;-52
2021/09/23 01:56:52;;;;;;;0.30;0.20;;;;;;;7.95;100.00;101010.16;4990662;28;20449;-53
2021/09/23 01:59:23;;;;;;;0.40;0.30;;;;;;;7.91;100.00;101009.28;4969829;28;20489;-52
2021/09/23 02:01:50;;;;;;;0.30;0.20;;;;;;;7.98;100.00;100995.13;4973414;28;20450;-54
2021/09/23 02:04:17;;;;;;;0.30;0.20;;;;;;;7.96;100.00;100994.25;4969075;28;20558;-52
2021/09/23 02:06:45;;;;;;;0.30;0.20;;;;;;;7.79;100.00;100992.59;4971740;28;20458;-52
2021/09/23 02:09:13;;;;;;;0.30;0.20;;;;;;;7.82;100.00;100990.81;4967502;28;20486;-52
2021/09/23 02:11:40;;;;;;;0.30;0.20;;;;;;;7.64;100.00;100986.50;4964663;28;20537;-55
2021/09/23 02:14:07;;;;;;;0.30;0.20;;;;;;;7.85;100.00;100982.84;4968255;28;20490;-52
2021/09/23 02:16:35;;;;;;;0.30;0.20;;;;;;;7.72;100.00;100991.75;4971269;28;20458;-53
2021/09/23 02:19:02;;;;;;;0.30;0.20;;;;;;;7.65;100.00;100984.72;4967848;28;20449;-52
2021/09/23 02:21:29;;;;;;;0.30;0.20;;;;;;;7.66;100.00;100982.06;4964485;28;20451;-52
2021/09/23 02:23:56;;;;;;;0.30;0.20;;;;;;;7.72;100.00;100967.94;4967958;28;20926;-52
2021/09/23 02:26:23;;;;;;;0.77;0.77;;;;;;;7.79;100.00;100969.66;4971236;28;20448;-57
2021/09/23 02:28:50;;;;;;;0.30;0.20;;;;;;;7.65;100.00;100960.91;4968400;28;20451;-52
2021/09/23 02:31:17;;;;;;;0.30;0.20;;;;;;;7.75;100.00;100952.03;4968003;28;20662;-52
2021/09/23 02:33:44;;;;;;;0.67;0.67;;;;;;;7.65;100.00;100950.31;4968382;28;20988;-51
2021/09/23 02:36:11;;;;;;;0.30;0.20;;;;;;;7.77;100.00;100952.91;4964532;28;20457;-52
2021/09/23 02:38:38;;;;;;;0.30;0.20;;;;;;;7.72;100.00;100946.78;4966048;28;20513;-52
2021/09/23 02:41:05;;;;;;;0.30;0.20;;;;;;;7.61;100.00;100943.31;4970692;28;20514;-51
2021/09/23 02:43:33;;;;;;;0.30;0.20;;;;;;;7.60;100.00;100934.50;4968954;28;21026;-51
2021/09/23 02:46:00;;;;;;;0.30;0.20;;;;;;;7.69;100.00;100923.88;4962790;28;20458;-51
2021/09/23 02:48:27;;;;;;;0.30;0.20;;;;;;;7.64;100.00;100922.13;4965888;28;20968;-51
2021/09/23 02:50:54;;;;;;;0.30;0.20;;;;;;;7.71;100.00;100918.56;4970829;28;20448;-52
2021/09/23 02:53:21;;;;;;;0.30;0.20;;;;;;;7.68;100.00;100919.47;4969674;28;20478;-52
2021/09/23 02:55:47;;;;;;;0.30;0.20;;;;;;;7.62;100.00;100915.97;4968599;28;20478;-51
2021/09/23 02:58:15;;;;;;;0.60;0.60;;;;;;;7.61;100.00;100914.22;4983779;28;20509;-52
2021/09/23 03:00:41;;;;;;;0.30;0.20;;;;;;;7.43;100.00;100928.44;4964216;28;20972;-51
2021/09/23 03:03:11;;;;;;;0.40;0.30;;;;;;;7.63;100.00;100925.66;4976580;28;20494;-52
2021/09/23 03:05:38;;;;;;;0.40;0.30;;;;;;;7.64;100.00;100922.13;4970161;28;20461;-51
2021/09/23 03:08:05;;;;;;;0.30;0.20;;;;;;;7.49;100.00;100919.56;4970470;28;20454;-52
2021/09/23 03:10:32;;;;;;;0.30;0.20;;;;;;;7.71;100.00;100910.63;4965131;28;20943;-51
2021/09/23 03:12:59;;;;;;;0.30;0.20;;;;;;;7.64;100.00;100906.25;4963475;28;20538;-52
2021/09/23 03:15:26;;;;;;;0.30;0.20;;;;;;;7.43;100.00;100900.22;4969654;28;20514;-51
2021/09/23 03:17:53;;;;;;;0.30;0.20;;;;;;;7.32;100.00;100894.09;4970911;28;20489;-51
2021/09/23 03:20:23;;;;;;;0.30;0.20;;;;;;;7.27;100.00;100893.25;4965505;28;20469;-51
2021/09/23 03:22:51;;;;;;;0.30;0.20;;;;;;;7.38;100.00;100898.47;4963706;28;20680;-51
2021/09/23 03:25:19;;;;;;;0.30;0.20;;;;;;;7.26;100.00;100893.25;4969319;28;20482;-51
2021/09/23 03:27:46;;;;;;;0.30;0.20;;;;;;;7.41;100.00;100883.47;4970496;28;21039;-52
2021/09/23 03:30:13;;;;;;;0.30;0.20;;;;;;;7.36;100.00;100882.59;4965874;28;20558;-52
2021/09/23 03:32:40;;;;;;;0.30;0.20;;;;;;;7.33;100.00;100880.00;4963007;28;21004;-52
2021/09/23 03:35:07;;;;;;;0.30;0.20;;;;;;;7.34;100.00;100873.81;4967920;28;20459;-52
2021/09/23 03:37:34;;;;;;;0.30;0.20;;;;;;;7.22;100.00;100858.00;4970349;28;20458;-51
2021/09/23 03:40:06;;;;;;;0.30;0.20;;;;;;;7.22;100.00;100855.38;4966332;28;20458;-51
2021/09/23 03:42:34;;;;;;;0.30;0.20;;;;;;;7.21;100.00;100845.69;4963809;28;20498;-51
2021/09/23 03:45:01;;;;;;;0.30;0.20;;;;;;;7.08;100.00;100842.22;4967294;28;20455;-51
2021/09/23 03:47:28;;;;;;;0.90;0.90;;;;;;;7.03;100.00;100837.88;4970386;28;20486;-51
2021/09/23 03:49:55;;;;;;;0.77;0.77;;;;;;;7.11;100.00;100834.28;4967116;28;20451;-53
2021/09/23 03:52:22;;;;;;;0.30;0.20;;;;;;;7.05;100.00;100833.44;4961772;28;21003;-52
2021/09/23 03:54:49;;;;;;;0.30;0.20;;;;;;;7.11;100.00;100831.63;4965097;28;20811;-52
2021/09/23 03:57:16;;;;;;;0.30;0.20;;;;;;;6.98;100.00;100834.34;4987005;28;20498;-52
2021/09/23 03:59:43;;;;;;;0.30;0.20;;;;;;;7.13;100.00;100829.88;4964859;28;20828;-51
2021/09/23 04:02:10;;;;;;;0.30;0.20;;;;;;;7.18;100.00;100828.97;4974383;28;20474;-52
2021/09/23 04:04:38;;;;;;;0.30;0.20;;;;;;;7.09;100.00;100827.25;4964892;28;20928;-51
2021/09/23 04:07:04;;;;;;;1.13;0.80;;;;;;;7.13;100.00;100827.25;4969476;28;20462;-53
2021/09/23 04:09:37;;;;;;;0.30;0.20;;;;;;;6.94;100.00;100820.28;4968421;28;20469;-52
2021/09/23 04:12:04;;;;;;;0.30;0.20;;;;;;;6.83;100.00;100830.91;4963684;28;20997;-52
2021/09/23 04:14:32;;;;;;;0.30;0.20;;;;;;;6.70;100.00;100815.13;4963412;28;20831;-52
2021/09/23 04:16:59;;;;;;;0.30;0.20;;;;;;;6.93;100.00;100817.66;4970880;28;20458;-52
2021/09/23 04:19:26;;;;;;;0.30;0.20;;;;;;;6.87;100.00;100813.28;4970450;28;20943;-53
2021/09/23 04:21:53;;;;;;;0.30;0.20;;;;;;;6.82;100.00;100825.63;4958087;28;20459;-51
2021/09/23 04:24:20;;;;;;;0.30;0.20;;;;;;;6.63;100.00;100821.31;4970594;28;20497;-54
2021/09/23 04:26:47;;;;;;;0.30;0.20;;;;;;;6.82;100.00;100823.84;4964753;28;20496;-52
2021/09/23 04:29:15;;;;;;;0.30;0.20;;;;;;;6.80;100.00;100827.41;4962058;28;20509;-54
2021/09/23 04:31:42;;;;;;;2.00;1.90;;;;;;;6.95;100.00;100824.69;4967520;28;20487;-52
2021/09/23 04:34:09;;;;;;;0.30;0.20;;;;;;;7.03;100.00;100828.19;4968492;28;20450;-52
2021/09/23 04:36:36;;;;;;;0.30;0.20;;;;;;;6.98;100.00;100824.66;4963369;28;20477;-51
2021/09/23 04:39:05;;;;;;;0.30;0.20;;;;;;;7.04;100.00;100831.69;4962482;28;20455;-51
2021/09/23 04:41:32;;;;;;;0.30;0.20;;;;;;;6.92;100.00;100821.19;4968405;28;20466;-52
2021/09/23 04:43:59;;;;;;;0.30;0.20;;;;;;;6.53;100.00;100823.97;4970100;28;20490;-53
2021/09/23 04:46:26;;;;;;;0.30;0.20;;;;;;;6.77;100.00;100812.44;4965252;28;20478;-50
2021/09/23 04:48:53;;;;;;;0.43;0.43;;;;;;;6.63;100.00;100814.28;4963830;28;20447;-60
2021/09/23 04:51:22;;;;;;;0.30;0.20;;;;;;;6.68;100.00;100812.47;4969664;28;20466;-51
2021/09/23 04:53:52;;;;;;;0.33;0.20;;;;;;;6.61;100.00;100815.16;4969949;28;20475;-51
2021/09/23 04:56:19;;;;;;;0.30;0.20;;;;;;;6.52;100.00;100816.94;4975544;28;20446;-52
2021/09/23 04:58:46;;;;;;;0.30;0.20;;;;;;;6.64;100.00;100823.06;4976439;28;20535;-51
2021/09/23 05:01:13;;;;;;;0.50;0.50;;;;;;;6.72;100.00;100816.00;4966677;28;20494;-53
2021/09/23 05:03:41;;;;;;;0.30;0.20;;;;;;;6.75;100.00;100823.91;4973000;28;20530;-50
2021/09/23 05:06:09;;;;;;;0.30;0.20;;;;;;;6.72;100.00;100816.88;4967265;28;20451;-51
2021/09/23 05:08:35;;;;;;;0.30;0.20;;;;;;;6.54;100.00;100823.09;4963733;28;20454;-52
2021/09/23 05:11:02;;;;;;;0.30;0.20;;;;;;;6.72;100.00;100816.88;5000633;28;20462;-51
2021/09/23 05:13:30;;;;;;;0.30;0.20;;;;;;;6.79;100.00;100809.78;4964899;28;20560;-54
2021/09/23 05:15:56;;;;;;;0.30;0.20;;;;;;;6.76;100.00;100821.25;4968462;28;20510;-55
2021/09/23 05:18:23;;;;;;;0.30;0.20;;;;;;;6.65;100.00;100816.91;4971433;28;20455;-55
2021/09/23 05:20:50;;;;;;;1.03;1.03;;;;;;;6.63;100.00;100816.03;4972522;28;20934;-55
2021/09/23 05:23:17;;;;;;;0.30;0.20;;;;;;;6.64;100.00;100808.09;4969106;28;20533;-55
2021/09/23 05:25:44;;;;;;;0.30;0.20;;;;;;;6.78;100.00;100811.56;4970933;28;20878;-55
2021/09/23 05:28:11;;;;;;;0.30;0.20;;;;;;;6.78;100.00;100808.91;4975216;28;20451;-54
2021/09/23 05:30:39;;;;;;;0.30;0.20;;;;;;;6.58;100.00;100810.78;4973500;28;20454;-54
2021/09/23 05:33:07;;;;;;;0.30;0.20;;;;;;;6.63;100.00;100811.63;4969614;28;20982;-54
2021/09/23 05:35:34;;;;;;;0.30;0.20;;;;;;;6.65;100.00;100801.94;4971255;28;20463;-54
2021/09/23 05:38:01;;;;;;;0.30;0.20;;;;;;;6.74;100.00;100806.31;4976257;28;20458;-54
2021/09/23 05:40:29;;;;;;;0.30;0.20;;;;;;;6.87;100.00;100801.84;4973702;28;20461;-54
2021/09/23 05:42:55;;;;;;;0.30;0.20;;;;;;;6.86;100.00;100803.63;4982294;28;20513;-55
2021/09/23 05:45:22;;;;;;;0.30;0.20;;;;;;;6.89;100.00;100798.31;4969580;28;20483;-54
2021/09/23 05:47:49;;;;;;;0.30;0.20;;;;;;;7.06;100.00;100793.78;4975034;28;20452;-55
2021/09/23 05:50:16;;;;;;;0.30;0.20;;;;;;;7.07;100.00;100792.91;4973897;28;20454;-55
2021/09/23 05:52:43;;;;;;;0.30;0.20;;;;;;;7.06;100.00;100796.44;4968129;28;20470;-54
2021/09/23 05:55:11;;;;;;;0.30;0.20;;;;;;;7.07;100.00;100794.66;4970444;28;20455;-55
2021/09/23 05:57:38;;;;;;;0.30;0.20;;;;;;;7.21;100.00;100802.50;4992801;28;20855;-55
2021/09/23 06:00:07;;;;;;;0.30;0.20;;;;;;;7.33;100.00;100798.03;4966841;28;20455;-55
2021/09/23 06:02:34;;;;;;;0.30;0.20;;;;;;;7.37;100.00;100791.81;4979234;28;20506;-57
2021/09/23 06:05:01;;;;;;;0.30;0.20;;;;;;;7.49;100.00;100803.19;4966164;28;20530;-56
2021/09/23 06:07:28;;;;;;;0.30;0.20;;;;;;;7.69;100.00;100809.22;4971455;28;20455;-55
2021/09/23 06:09:55;;;;;;;0.30;0.20;;;;;;;7.55;100.00;100814.63;4972728;28;20450;-55
2021/09/23 06:12:22;;;;;;;0.30;0.20;;;;;;;7.77;100.00;100807.34;4966502;28;20486;-56
2021/09/23 06:14:50;;;;;;;0.30;0.20;;;;;;;7.96;100.00;100814.25;4964811;28;20461;-56
2021/09/23 06:17:17;;;;;;;0.30;0.20;;;;;;;7.83;100.00;100815.25;4970276;28;20455;-56
2021/09/23 06:19:44;;;;;;;0.30;0.20;;;;;;;7.81;100.00;100802.91;4972803;28;20490;-56
2021/09/23 06:22:11;;;;;;;0.60;0.60;;;;;;;7.96;100.00;100808.09;4968503;28;20474;-56
2021/09/23 06:24:38;;;;;;;0.30;0.20;;;;;;;7.99;100.00;100808.06;4965708;28;20931;-56
2021/09/23 06:27:05;;;;;;;0.40;0.30;;;;;;;8.12;100.00;100814.09;4970312;28;20502;-55
2021/09/23 06:29:32;;;;;;;0.30;0.20;;;;;;;8.24;100.00;100811.34;4972563;28;20487;-57
2021/09/23 06:31:59;;;;;;;0.30;0.20;;;;;;;8.25;100.00;100815.72;4965533;28;20493;-56
2021/09/23 06:34:26;;;;;;;0.30;0.20;;;;;;;8.55;100.00;100817.19;4971487;28;20534;-54
2021/09/23 06:36:53;;;;;;;0.53;0.53;;;;;;;8.75;100.00;100823.09;4967618;28;20486;-54
2021/09/23 06:39:20;;;;;;;1.27;1.17;;;;;;;8.82;100.00;100822.16;4964073;28;20454;-55
2021/09/23 06:41:47;;;;;;;0.40;0.27;;;;;;;8.82;100.00;100832.75;4967403;28;20487;-54
2021/09/23 06:44:14;;;;;;;0.40;0.20;;;;;;;8.82;100.00;100830.09;4971665;28;20534;-57
2021/09/23 06:46:41;;;;;;;0.30;0.20;;;;;;;8.74;100.00;100829.31;4968622;28;20458;-57
2021/09/23 06:49:08;;;;;;;0.83;0.50;;;;;;;8.80;100.00;100815.13;4964834;28;20450;-57
2021/09/23 06:51:35;;;;;;;0.30;0.20;;;;;;;8.89;100.00;100821.16;4967362;28;20474;-56
2021/09/23 06:54:09;;;;;;;0.30;0.20;;;;;;;9.09;100.00;100826.22;4971448;28;21268;-56
2021/09/23 06:56:36;;;;;;;1.47;1.47;;;;;;;9.22;100.00;100824.25;4982281;28;20480;-55
2021/09/23 06:59:03;;;;;;;0.30;0.20;;;;;;;9.29;100.00;100825.03;4977312;28;20833;-54
2021/09/23 07:01:30;;;;;;;0.30;0.20;;;;;;;9.58;100.00;100822.81;4976611;28;20478;-54
2021/09/23 07:03:58;;;;;;;0.30;0.30;;;;;;;9.72;100.00;100833.19;4970364;28;20499;-54
2021/09/23 07:06:25;;;;;;;0.30;0.20;;;;;;;9.94;100.00;100826.63;4969089;28;20485;-54
2021/09/23 07:08:52;;;;;;;0.83;0.83;;;;;;;10.29;100.00;100812.75;4962754;28;20457;-54
2021/09/23 07:11:19;;;;;;;0.33;0.27;;;;;;;10.22;100.00;100803.16;4963837;28;20494;-54
2021/09/23 07:13:46;;;;;;;0.30;0.20;;;;;;;10.27;100.00;100808.34;4963207;28;20506;-54
2021/09/23 07:16:12;;;;;;;0.30;0.20;;;;;;;10.27;100.00;100808.34;4963461;28;20486;-54
2021/09/23 07:18:39;;;;;;;0.30;0.20;;;;;;;10.34;100.00;100810.00;4962064;28;20558;-54
2021/09/23 07:21:07;;;;;;;0.30;0.20;;;;;;;10.27;100.00;100790.63;4962861;28;20514;-55
2021/09/23 07:23:35;;;;;;;0.30;0.20;;;;;;;10.62;100.00;100797.03;4969076;28;20557;-55
2021/09/23 07:26:02;;;;;;;0.30;0.20;;;;;;;10.50;100.00;100802.59;4969712;28;20490;-54
2021/09/23 07:28:29;;;;;;;0.30;0.20;;;;;;;10.73;100.00;100796.81;4963694;28;20486;-54
2021/09/23 07:30:56;;;;;;;0.40;0.40;;;;;;;10.75;100.00;100790.56;4969590;28;21048;-55
2021/09/23 07:33:23;;;;;;;0.33;0.20;;;;;;;10.84;100.00;100789.50;4964357;28;20525;-54
2021/09/23 07:35:51;;;;;;;0.40;0.20;;;;;;;10.80;100.00;100794.00;4961968;28;20463;-54
2021/09/23 07:38:18;;;;;;;0.30;0.20;;;;;;;10.93;100.00;100795.47;4968623;28;21011;-55
2021/09/23 07:40:45;;;;;;;0.40;0.40;;;;;;;11.07;100.00;100794.28;4969720;28;20466;-55
2021/09/23 07:43:12;;;;;;;0.30;0.20;;;;;;;11.13;100.00;100792.38;4963715;28;20494;-55
2021/09/23 07:45:39;;;;;;;0.30;0.20;;;;;;;11.21;100.00;100789.53;4963699;28;20996;-55
2021/09/23 07:48:06;;;;;;;0.30;0.20;;;;;;;11.44;100.00;100789.00;4968926;28;20455;-55
2021/09/23 07:50:32;;;;;;;0.30;0.20;;;;;;;11.54;100.00;100791.41;4970303;28;20903;-55
2021/09/23 07:53:00;;;;;;;0.30;0.20;;;;;;;11.62;100.00;100783.22;4966170;28;20509;-54
2021/09/23 07:55:27;;;;;;;0.30;0.20;;;;;;;11.50;100.00;100771.06;4966951;28;20445;-55
2021/09/23 07:57:54;;;;;;;0.30;0.20;;;;;;;11.67;100.00;100768.03;4986242;28;20454;-54
2021/09/23 08:00:21;;;;;;;0.40;0.30;;;;;;;11.93;100.00;100759.38;4964121;28;20450;-54
2021/09/23 08:02:48;;;;;;;0.30;0.20;;;;;;;12.11;100.00;100753.56;4978193;28;20489;-55
2021/09/23 08:05:15;;;;;;;0.33;0.27;;;;;;;12.46;100.00;100747.22;4965705;28;20873;-55
2021/09/23 08:07:44;;;;;;;0.30;0.20;;;;;;;12.27;100.00;100740.66;4969651;28;20474;-55
2021/09/23 08:10:11;;;;;;;0.30;0.20;;;;;;;12.70;100.00;100740.28;4973178;28;20462;-55
2021/09/23 08:12:39;;;;;;;0.60;0.60;;;;;;;12.88;100.00;100735.31;4970644;28;20996;-55
2021/09/23 08:15:06;;;;;;;0.40;0.20;;;;;;;13.00;100.00;100738.47;4967315;28;20450;-55
2021/09/23 08:17:33;;;;;;;0.30;0.20;;;;;;;13.13;100.00;100735.41;4969985;28;20474;-55
2021/09/23 08:20:00;;;;;;;0.60;0.60;;;;;;;13.24;100.00;100736.84;4974526;28;20456;-55
2021/09/23 08:22:27;;;;;;;0.40;0.20;;;;;;;13.38;100.00;100724.84;4971704;28;20470;-56
2021/09/23 08:24:54;;;;;;;0.30;0.30;;;;;;;13.49;100.00;100726.25;4966858;28;20518;-55
2021/09/23 08:27:21;;;;;;;0.40;0.40;;;;;;;13.82;100.00;100716.19;4969542;28;20459;-55
2021/09/23 08:29:48;;;;;;;0.40;0.20;;;;;;;13.84;99.41;100716.13;4972662;28;20451;-55
2021/09/23 08:32:19;;;;;;;0.30;0.20;;;;;;;14.01;98.66;100708.41;4967974;28;20475;-56
2021/09/23 08:34:48;;;;;;;0.40;0.40;;;;;;;14.26;98.28;100716.41;4974590;28;20447;-55
2021/09/23 08:37:16;;;;;;;4.10;2.27;;;;;;;14.18;98.18;100722.03;4973261;28;20459;-55
2021/09/23 08:39:45;;;;;;;0.30;0.20;;;;;;;14.22;97.73;100726.31;4967374;28;20450;-55
2021/09/23 08:42:14;;;;;;;0.80;0.80;;;;;;;14.33;97.35;100717.91;4967364;28;20903;-55
2021/09/23 08:44:42;;;;;;;1.13;0.93;;;;;;;14.73;96.80;100717.31;4973430;28;20518;-56
2021/09/23 08:47:09;;;;;;;0.63;0.63;;;;;;;14.81;94.98;100711.69;4973662;28;20454;-56
2021/09/23 08:49:37;;;;;;;1.43;1.13;;;;;;;14.97;94.70;100712.81;4967819;28;20830;-56
2021/09/23 08:52:04;;;;;;;0.40;0.20;;;;;;;15.15;95.57;100715.66;4981594;28;20905;-55
2021/09/23 08:54:30;;;;;;;0.40;0.33;;;;;;;15.27;94.79;100720.53;4972441;28;20502;-56
2021/09/23 08:57:01;;;;;;;0.50;0.50;;;;;;;15.54;94.51;100722.06;4988412;28;20452;-55
2021/09/23 08:59:30;;;;;;;0.50;0.40;;;;;;;15.54;93.05;100723.88;4970813;28;20510;-56
2021/09/23 09:02:00;;;;;;;1.03;1.03;;;;;;;15.54;92.78;100713.16;4976847;28;20529;-56
2021/09/23 09:04:34;;;;;;;0.40;0.30;;;;;;;15.59;92.90;100700.41;4969106;28;20906;-55
2021/09/23 09:07:03;;;;;;;0.90;0.83;;;;;;;15.46;93.64;100700.06;4973065;28;20546;-55
2021/09/23 09:09:30;;;;;;;0.97;0.93;;;;;;;15.82;91.74;100700.34;4972797;28;20455;-55
2021/09/23 09:12:13;;;;;;;0.40;0.20;;;;;;;16.11;90.87;100699.06;4967121;28;20614;-56
2021/09/23 09:14:42;;;;;;;0.93;0.93;;;;;;;16.14;91.06;100692.69;4965939;28;20506;-55
2021/09/23 09:17:09;;;;;;;0.40;0.27;;;;;;;16.35;90.80;100697.09;4972122;28;20450;-55
2021/09/23 09:19:50;;;;;;;0.50;0.30;;;;;;;16.80;89.48;100687.84;4970840;28;20461;-55
2021/09/23 09:22:22;;;;;;;0.40;0.30;;;;;;;16.99;88.88;100687.81;4968319;28;20466;-56
2021/09/23 09:25:12;;;;;;;0.40;0.20;;;;;;;17.07;87.71;100675.75;4965737;28;20533;-56
2021/09/23 09:27:42;;;;;;;2.03;1.47;;;;;;;17.41;87.33;100674.09;4965812;28;20490;-55
2021/09/23 09:30:17;;;;;;;0.70;0.70;;;;;;;17.58;86.31;100675.91;4970608;28;20451;-56
2021/09/23 09:32:57;;;;;;;0.73;0.73;;;;;;;17.70;84.88;100675.31;4964597;28;20474;-56
2021/09/23 09:35:34;;;;;;;0.40;0.20;;;;;;;17.81;85.13;100670.22;4967300;28;20451;-55
2021/09/23 09:38:04;;;;;;;0.93;0.93;;;;;;;17.84;84.57;100671.91;4972587;28;20447;-55
2021/09/23 09:40:38;;;;;;;0.40;0.20;;;;;;;17.53;84.36;100668.06;4972327;28;20498;-56
2021/09/23 09:43:07;;;;;;;0.40;0.20;;;;;;;17.59;84.47;100667.78;4967472;28;20467;-56
2021/09/23 09:45:35;;;;;;;0.40;0.20;;;;;;;17.68;83.29;100663.72;4966080;28;20498;-55
2021/09/23 09:48:04;;;;;;;0.40;0.20;;;;;;;17.91;81.82;100657.16;4971511;28;20471;-56
2021/09/23 09:50:33;;;;;;;0.40;0.20;;;;;;;18.12;80.80;100661.41;4971609;28;20450;-55
2021/09/23 09:53:03;;;;;;;0.40;0.30;;;;;;;18.17;80.12;100648.56;4968292;28;20474;-55
2021/09/23 09:55:31;;;;;;;0.40;0.20;;;;;;;18.50;80.02;100653.94;4969116;28;20472;-56
2021/09/23 09:58:00;;;;;;;0.40;0.30;;;;;;;18.80;78.86;100655.91;4987625;28;20558;-55
2021/09/23 10:00:29;;;;;;;0.40;0.20;;;;;;;19.10;78.58;100647.88;4963417;28;20458;-55
2021/09/23 10:02:56;;;;;;;0.70;0.70;;;;;;;19.08;77.08;100649.81;4976551;28;20537;-56
2021/09/23 10:05:24;;;;;;;0.40;0.30;;;;;;;19.23;75.25;100630.03;4964259;28;20490;-55
2021/09/23 10:07:56;;;;;;;0.50;0.37;;;;;;;19.43;76.53;100626.13;4969404;28;20865;-55
2021/09/23 10:10:25;;;;;;;0.40;0.20;;;;;;;19.44;76.22;100617.09;4975313;28;20506;-55
2021/09/23 10:12:58;;;;;;;0.50;0.30;;;;;;;19.49;76.59;100625.78;4974215;28;20485;-55
2021/09/23 10:15:27;;;;;;;0.40;0.30;;;;;;;19.61;75.48;100619.69;4969169;28;20446;-55
2021/09/23 10:17:55;;;;;;;0.47;0.30;;;;;;;19.56;74.67;100612.81;4968330;28;20459;-55
2021/09/23 10:20:24;;;;;;;0.40;0.30;;;;;;;19.59;74.35;100602.72;4975019;28;20451;-55
2021/09/23 10:22:53;;;;;;;0.40;0.20;;;;;;;19.89;75.00;100591.03;4975756;28;20482;-55
2021/09/23 10:25:24;;;;;;;0.60;0.50;;;;;;;20.02;74.08;100584.75;4969805;28;20521;-55
2021/09/23 10:27:58;;;;;;;0.40;0.20;;;;;;;20.18;73.12;100576.56;4967429;28;20447;-56
2021/09/23 10:30:44;;;;;;;0.63;0.63;;;;;;;20.50;72.34;100565.53;4973136;28;20450;-55
2021/09/23 10:33:11;;;;;;;0.40;0.20;;;;;;;20.60;71.53;100567.53;4967691;28;20471;-56
2021/09/23 10:35:38;;;;;;;0.40;0.30;;;;;;;20.63;70.66;100561.91;4968048;28;20447;-56
2021/09/23 10:38:07;;;;;;;3.63;1.60;;;;;;;20.58;69.65;100563.19;4973502;28;20462;-55
2021/09/23 10:40:37;;;;;;;0.50;0.37;;;;;;;20.75;68.60;100538.63;4973203;28;20454;-55
2021/09/23 10:43:07;;;;;;;0.40;0.30;;;;;;;20.86;68.15;100546.88;4967390;28;20471;-55
2021/09/23 10:45:35;;;;;;;0.40;0.20;;;;;;;21.05;66.74;100553.75;4966692;28;21008;-56
2021/09/23 10:48:03;;;;;;;0.40;0.20;;;;;;;21.14;66.31;100540.47;4972281;28;20462;-55
2021/09/23 10:50:34;;;;;;;0.40;0.20;;;;;;;21.17;65.63;100534.00;4973132;28;20482;-55
2021/09/23 10:53:02;;;;;;;0.40;0.30;;;;;;;21.19;64.83;100537.44;4970061;28;20602;-55
2021/09/23 10:55:34;;;;;;;0.40;0.20;;;;;;;21.37;64.61;100529.94;4969871;28;20537;-55
2021/09/23 10:58:02;;;;;;;0.40;0.20;;;;;;;21.44;64.15;100529.41;4989152;28;20469;-56
2021/09/23 11:00:33;;;;;;;0.50;0.50;;;;;;;21.32;64.10;100511.31;4966708;28;20832;-55
2021/09/23 11:03:05;;;;;;;0.40;0.20;;;;;;;21.59;64.26;100512.09;4979264;28;20474;-56
2021/09/23 11:05:33;;;;;;;0.50;0.40;;;;;;;21.64;63.88;100513.59;4965798;28;20483;-55
2021/09/23 11:08:14;;;;;;;0.97;0.93;;;;;;;21.81;63.57;100518.69;4965823;28;20491;-55
2021/09/23 11:10:43;;;;;;;0.77;0.77;;;;;;;21.73;64.19;100526.47;4965890;28;20446;-55
2021/09/23 11:13:13;;;;;;;0.40;0.20;;;;;;;21.70;64.62;100524.00;4992074;23;20537;-53
2021/09/23 11:15:42;;;;;;;0.40;0.20;;;;;;;21.70;63.10;100519.44;4986086;28;20493;-52
2021/09/23 11:18:11;;;;;;;0.50;0.30;;;;;;;21.74;64.21;100522.78;4987913;28;20458;-52
2021/09/23 11:20:44;;;;;;;0.53;0.50;;;;;;;21.78;63.80;100527.00;4984774;28;20933;-52
2021/09/23 11:23:13;;;;;;;0.40;0.30;;;;;;;21.79;63.69;100524.22;5008429;28;20522;-52
2021/09/23 11:25:53;;;;;;;0.40;0.30;;;;;;;21.85;65.49;100520.19;4986627;28;20493;-52
2021/09/23 11:28:22;;;;;;;0.40;0.20;;;;;;;21.98;64.64;100525.59;4969336;28;21001;-52
2021/09/23 11:30:52;;;;;;;0.40;0.20;;;;;;;22.20;64.67;100514.09;4986204;28;20453;-52